createdAt,value
2023-05-19T00:01:00.318Z,3.55
2023-05-19T00:03:27.169Z,3.25
2023-05-19T00:05:54.102Z,3.63
2023-05-19T00:08:24.641Z,3.30
2023-05-19T00:10:59.188Z,3.38
2023-05-19T00:13:26.044Z,3.75
2023-05-19T00:15:53.075Z,3.25
2023-05-19T00:18:20.646Z,3.15
2023-05-19T00:20:47.126Z,3.08
2023-05-19T00:23:13.646Z,3.40
2023-05-19T00:25:40.415Z,3.28
2023-05-19T00:28:06.913Z,3.42
2023-05-19T00:30:33.644Z,3.45
2023-05-19T00:33:02.992Z,3.50
2023-05-19T00:35:29.600Z,3.35
2023-05-19T00:37:57.213Z,3.38
2023-05-19T00:40:24.560Z,3.30
2023-05-19T00:42:51.110Z,3.33
2023-05-19T00:45:17.740Z,3.53
2023-05-19T00:47:44.384Z,3.80
2023-05-19T00:50:11.037Z,3.67
2023-05-19T00:52:37.758Z,3.38
2023-05-19T00:55:05.180Z,3.53
2023-05-19T00:57:31.685Z,3.42
2023-05-19T01:00:01.476Z,3.30
2023-05-19T01:02:29.829Z,3.83
2023-05-19T01:04:59.785Z,3.80
2023-05-19T01:07:27.304Z,4.00
2023-05-19T01:09:54.129Z,3.55
2023-05-19T01:12:20.714Z,3.45
2023-05-19T01:14:47.721Z,3.50
2023-05-19T01:17:42.366Z,3.40
2023-05-19T01:20:33.908Z,3.38
2023-05-19T01:23:18.590Z,3.28
2023-05-19T01:26:03.455Z,3.33
2023-05-19T01:28:39.055Z,3.63
2023-05-19T01:31:07.667Z,3.35
2023-05-19T01:33:35.894Z,3.72
2023-05-19T01:36:04.065Z,3.22
2023-05-19T01:38:33.532Z,3.17
2023-05-19T01:41:01.381Z,3.40
2023-05-19T01:43:29.244Z,3.63
2023-05-19T01:45:58.781Z,3.60
2023-05-19T01:48:27.184Z,4.20
2023-05-19T01:50:53.719Z,3.15
2023-05-19T01:53:20.328Z,3.70
2023-05-19T01:55:50.788Z,3.45
2023-05-19T01:58:43.908Z,3.30
2023-05-19T02:01:32.161Z,3.40
2023-05-19T02:04:09.346Z,3.80
2023-05-19T02:07:25.297Z,3.60
2023-05-19T02:10:10.781Z,3.90
2023-05-19T02:12:40.946Z,3.50
2023-05-19T02:15:12.366Z,3.53
2023-05-19T02:17:41.617Z,3.40
2023-05-19T02:20:12.049Z,3.50
2023-05-19T02:22:38.639Z,3.45
2023-05-19T02:25:05.595Z,3.40
2023-05-19T02:27:32.136Z,3.17
2023-05-19T02:29:58.692Z,3.50
2023-05-19T02:32:25.337Z,3.30
2023-05-19T02:34:53.329Z,3.22
2023-05-19T02:37:23.755Z,3.13
2023-05-19T02:39:50.386Z,3.30
2023-05-19T02:42:19.777Z,3.13
2023-05-19T02:44:46.584Z,3.45
2023-05-19T02:47:13.553Z,3.50
2023-05-19T02:49:40.454Z,3.25
2023-05-19T02:52:10.101Z,3.10
2023-05-19T02:54:36.603Z,3.60
2023-05-19T02:57:03.382Z,3.58
2023-05-19T02:59:29.904Z,3.35
2023-05-19T03:01:59.934Z,3.30
2023-05-19T03:04:26.593Z,3.50
2023-05-19T03:06:54.170Z,3.53
2023-05-19T03:09:20.837Z,3.70
2023-05-19T03:11:47.458Z,3.72
2023-05-19T03:14:14.018Z,3.70
2023-05-19T03:16:42.160Z,3.80
2023-05-19T03:19:09.534Z,3.13
2023-05-19T03:21:36.724Z,3.60
2023-05-19T03:24:03.435Z,3.60
2023-05-19T03:26:30.038Z,3.25
2023-05-19T03:28:56.561Z,3.20
2023-05-19T03:31:23.069Z,3.53
2023-05-19T03:33:49.611Z,3.53
2023-05-19T03:36:16.091Z,3.47
2023-05-19T03:38:42.625Z,4.50
2023-05-19T03:41:09.130Z,4.30
2023-05-19T03:43:35.699Z,3.88
2023-05-19T03:46:02.329Z,3.60
2023-05-19T03:48:28.998Z,4.00
2023-05-19T03:50:55.656Z,4.22
2023-05-19T03:53:22.274Z,3.90
2023-05-19T03:55:52.141Z,4.25
2023-05-19T03:58:18.892Z,4.30
2023-05-19T04:00:45.376Z,4.47
2023-05-19T04:03:12.040Z,4.25
2023-05-19T04:05:38.739Z,4.20
2023-05-19T04:08:05.609Z,4.00
2023-05-19T04:10:32.407Z,3.40
2023-05-19T04:12:59.160Z,4.10
2023-05-19T04:15:25.989Z,3.97
2023-05-19T04:17:52.607Z,3.47
2023-05-19T04:20:19.211Z,4.15
2023-05-19T04:22:45.689Z,4.07
2023-05-19T04:25:12.296Z,3.70
2023-05-19T04:27:42.366Z,3.72
2023-05-19T04:30:09.409Z,3.58
2023-05-19T04:32:37.460Z,3.70
2023-05-19T04:35:04.796Z,3.78
2023-05-19T04:37:31.545Z,3.97
2023-05-19T04:39:58.180Z,3.70
2023-05-19T04:42:28.969Z,4.25
2023-05-19T04:44:55.554Z,3.83
2023-05-19T04:47:22.161Z,3.90
2023-05-19T04:49:48.793Z,3.80
2023-05-19T04:52:16.039Z,3.90
2023-05-19T04:54:42.634Z,3.95
2023-05-19T04:57:10.467Z,4.32
2023-05-19T04:59:37.034Z,4.30
2023-05-19T05:02:04.361Z,3.90
2023-05-19T05:04:32.088Z,3.70
2023-05-19T05:06:58.600Z,4.25
2023-05-19T05:09:25.300Z,4.10
2023-05-19T05:11:52.038Z,4.97
2023-05-19T05:14:18.944Z,5.30
2023-05-19T05:16:46.466Z,4.90
2023-05-19T05:19:13.419Z,4.57
2023-05-19T05:21:41.489Z,6.30
2023-05-19T05:24:09.270Z,6.72
2023-05-19T05:26:36.147Z,6.25
2023-05-19T05:29:03.815Z,5.70
2023-05-19T05:31:30.416Z,5.80
2023-05-19T05:33:57.143Z,6.00
2023-05-19T05:36:23.761Z,5.15
2023-05-19T05:38:53.465Z,5.10
2023-05-19T05:41:21.960Z,5.22
2023-05-19T05:43:48.532Z,5.60
2023-05-19T05:46:15.113Z,5.60
2023-05-19T05:48:42.707Z,5.50
2023-05-19T05:51:09.722Z,5.55
2023-05-19T05:53:41.908Z,5.32
2023-05-19T05:56:09.652Z,5.05
2023-05-19T05:58:37.668Z,5.60
2023-05-19T06:01:04.856Z,5.47
2023-05-19T06:03:31.967Z,5.13
2023-05-19T06:05:58.606Z,5.32
2023-05-19T06:08:25.215Z,5.03
2023-05-19T06:10:51.725Z,4.72
2023-05-19T06:13:22.537Z,4.88
2023-05-19T06:15:49.119Z,4.60
2023-05-19T06:18:15.780Z,4.55
2023-05-19T06:20:42.292Z,4.82
2023-05-19T06:23:08.939Z,5.13
2023-05-19T06:25:35.693Z,4.75
2023-05-19T06:28:03.565Z,5.00
2023-05-19T06:30:30.216Z,5.07
2023-05-19T06:32:56.850Z,4.95
2023-05-19T06:35:23.447Z,4.95
2023-05-19T06:37:50.049Z,4.72
2023-05-19T06:40:16.642Z,4.43
2023-05-19T06:42:43.175Z,4.60
2023-05-19T06:45:10.260Z,4.97
2023-05-19T06:47:36.864Z,5.00
2023-05-19T06:50:03.484Z,5.38
2023-05-19T06:52:30.008Z,4.88
2023-05-19T06:54:56.754Z,5.38
2023-05-19T06:57:23.768Z,5.03
2023-05-19T06:59:50.457Z,4.90
2023-05-19T07:02:17.180Z,4.72
2023-05-19T07:04:47.366Z,4.93
2023-05-19T07:07:13.926Z,4.72
2023-05-19T07:09:40.689Z,4.80
2023-05-19T07:12:07.522Z,5.18
2023-05-19T07:14:34.076Z,4.53
2023-05-19T07:17:00.699Z,4.63
2023-05-19T07:19:27.300Z,5.68
2023-05-19T07:21:54.947Z,4.40
2023-05-19T07:24:22.213Z,4.70
2023-05-19T07:26:48.969Z,4.93
2023-05-19T07:29:15.637Z,5.22
2023-05-19T07:31:42.227Z,5.43
2023-05-19T07:34:09.024Z,4.80
2023-05-19T07:36:35.987Z,4.97
2023-05-19T07:39:02.619Z,4.63
2023-05-19T07:41:29.199Z,4.38
2023-05-19T07:43:55.961Z,4.47
2023-05-19T07:46:22.622Z,4.55
2023-05-19T07:48:49.461Z,5.30
2023-05-19T07:51:16.194Z,4.75
2023-05-19T07:53:42.773Z,4.15
2023-05-19T07:56:11.850Z,4.43
2023-05-19T07:58:38.514Z,4.63
2023-05-19T08:01:05.227Z,4.53
2023-05-19T08:03:32.058Z,4.78
2023-05-19T08:05:58.766Z,4.90
2023-05-19T08:08:25.584Z,4.38
2023-05-19T08:10:52.210Z,4.25
2023-05-19T08:13:18.713Z,4.65
2023-05-19T08:15:45.362Z,4.30
2023-05-19T08:18:11.932Z,4.10
2023-05-19T08:20:38.621Z,4.47
2023-05-19T08:23:05.376Z,4.57
2023-05-19T08:25:32.156Z,4.45
2023-05-19T08:27:58.649Z,4.30
2023-05-19T08:30:25.245Z,4.75
2023-05-19T08:32:51.892Z,4.05
2023-05-19T08:35:21.520Z,4.07
2023-05-19T08:37:48.020Z,4.30
2023-05-19T08:40:17.502Z,4.45
2023-05-19T08:42:45.583Z,3.70
2023-05-19T08:45:15.013Z,3.83
2023-05-19T08:47:42.483Z,3.40
2023-05-19T08:50:11.817Z,3.25
2023-05-19T08:52:50.264Z,3.38
2023-05-19T08:55:53.348Z,3.33
2023-05-19T08:58:23.219Z,3.53
2023-05-19T09:00:51.137Z,3.20
2023-05-19T09:08:16.602Z,3.25
2023-05-19T09:10:43.281Z,3.53
2023-05-19T09:13:09.854Z,3.42
2023-05-19T09:15:39.137Z,3.80
2023-05-19T09:18:08.383Z,2.90
2023-05-19T09:20:45.089Z,3.53
2023-05-19T09:23:16.363Z,3.15
2023-05-19T09:25:50.393Z,3.30
2023-05-19T09:28:29.402Z,3.33
2023-05-19T09:31:06.242Z,3.33
2023-05-19T09:33:34.909Z,3.30
2023-05-19T09:36:01.942Z,3.25
2023-05-19T09:38:31.517Z,3.40
2023-05-19T09:40:59.774Z,3.30
2023-05-19T09:43:31.812Z,3.40
2023-05-19T09:46:13.612Z,3.20
2023-05-19T09:48:41.080Z,3.35
2023-05-19T09:51:10.715Z,3.53
2023-05-19T09:53:38.994Z,3.40
2023-05-19T09:56:08.624Z,3.20
2023-05-19T09:58:36.371Z,3.00
2023-05-19T10:01:07.559Z,2.90
2023-05-19T10:03:34.616Z,3.13
2023-05-19T10:06:02.063Z,2.92
2023-05-19T10:08:32.261Z,2.88
2023-05-19T10:11:00.081Z,2.90
2023-05-19T10:13:28.200Z,2.92
2023-05-19T10:15:59.239Z,2.95
2023-05-19T10:20:54.959Z,2.78
2023-05-19T10:23:22.382Z,2.58
2023-05-19T10:25:52.001Z,2.70
2023-05-19T10:28:25.887Z,2.95
2023-05-19T10:30:56.877Z,2.65
2023-05-19T10:33:47.375Z,2.83
2023-05-19T10:36:35.390Z,2.75
2023-05-19T10:39:07.794Z,2.67
2023-05-19T10:41:47.048Z,2.25
2023-05-19T10:44:30.652Z,2.80
2023-05-19T10:46:57.478Z,2.40
2023-05-19T10:49:24.292Z,2.90
2023-05-19T10:51:52.534Z,2.60
2023-05-19T10:54:40.710Z,2.30
2023-05-19T10:57:08.340Z,2.60
2023-05-19T10:59:40.045Z,2.85
2023-05-19T11:02:10.122Z,2.55
2023-05-19T11:04:54.117Z,2.45
2023-05-19T11:07:22.444Z,2.33
2023-05-19T11:09:53.478Z,2.42
2023-05-19T11:12:25.050Z,2.20
2023-05-19T11:17:23.769Z,2.60
2023-05-19T11:19:58.663Z,2.20
2023-05-19T11:22:26.938Z,2.78
2023-05-19T11:24:59.779Z,2.42
2023-05-19T11:27:31.395Z,2.38
2023-05-19T11:30:00.482Z,2.30
2023-05-19T11:32:29.288Z,2.70
2023-05-19T11:34:57.631Z,2.40
2023-05-19T11:37:24.353Z,2.30
2023-05-19T11:39:52.276Z,2.20
2023-05-19T11:42:19.176Z,2.33
2023-05-19T11:44:46.410Z,2.00
2023-05-19T11:47:14.326Z,2.22
2023-05-19T11:49:45.908Z,2.30
2023-05-19T11:52:12.930Z,2.30
2023-05-19T11:54:41.827Z,2.40
2023-05-19T11:57:10.633Z,2.60
2023-05-19T11:59:39.235Z,2.20
2023-05-19T12:02:19.201Z,2.10
2023-05-19T12:04:46.967Z,2.70
2023-05-19T12:07:17.653Z,2.72
2023-05-19T12:09:46.020Z,2.35
2023-05-19T12:12:22.538Z,2.45
2023-05-19T12:14:51.120Z,2.50
2023-05-19T12:17:25.531Z,2.28
2023-05-19T12:19:52.460Z,1.90
2023-05-19T12:22:19.277Z,2.00
2023-05-19T12:24:47.198Z,2.15
2023-05-19T12:27:19.596Z,2.28
2023-05-19T12:29:57.308Z,2.53
2023-05-19T12:32:25.384Z,2.08
2023-05-19T12:34:53.005Z,2.38
2023-05-19T12:37:19.793Z,2.13
2023-05-19T12:39:48.320Z,2.15
2023-05-19T12:42:16.191Z,2.17
2023-05-19T12:44:46.509Z,2.28
2023-05-19T12:47:14.859Z,2.00
2023-05-19T12:50:01.534Z,1.88
2023-05-19T12:52:29.504Z,2.20
2023-05-19T12:55:05.268Z,2.10
2023-05-19T12:57:38.666Z,2.05
2023-05-19T13:00:10.658Z,2.80
2023-05-19T13:03:08.519Z,2.00
2023-05-19T13:05:39.620Z,2.20
2023-05-19T13:08:08.924Z,2.15
2023-05-19T13:10:36.763Z,1.98
2023-05-19T13:13:04.235Z,2.00
2023-05-19T13:15:36.465Z,1.90
2023-05-19T13:18:06.189Z,1.83
2023-05-19T13:20:33.532Z,2.05
2023-05-19T13:23:00.409Z,2.00
2023-05-19T13:25:27.505Z,1.70
2023-05-19T13:27:54.650Z,1.67
2023-05-19T13:30:21.961Z,2.10
2023-05-19T13:32:48.622Z,1.88
2023-05-19T13:35:18.403Z,2.30
2023-05-19T13:37:45.062Z,1.63
2023-05-19T13:40:12.177Z,1.80
2023-05-19T13:42:38.893Z,2.45
2023-05-19T13:45:06.061Z,1.80
2023-05-19T13:47:32.718Z,1.90
2023-05-19T13:49:59.362Z,1.95
2023-05-19T13:52:28.090Z,1.90
2023-05-19T13:54:56.626Z,1.85
2023-05-19T13:57:23.784Z,2.15
2023-05-19T14:00:10.817Z,1.90
2023-05-19T14:02:38.201Z,1.90
2023-05-19T14:05:05.890Z,1.77
2023-05-19T14:07:34.660Z,1.92
2023-05-19T14:10:02.584Z,1.90
2023-05-19T14:12:37.983Z,1.80
2023-05-19T14:15:14.202Z,1.70
2023-05-19T14:17:40.821Z,1.83
2023-05-19T14:20:08.510Z,1.95
2023-05-19T14:22:35.183Z,2.00
2023-05-19T14:25:02.503Z,1.65
2023-05-19T14:27:29.006Z,1.70
2023-05-19T14:29:55.642Z,1.55
2023-05-19T14:32:22.359Z,1.75
2023-05-19T14:34:52.823Z,1.88
2023-05-19T14:37:20.817Z,1.85
2023-05-19T14:39:47.375Z,2.00
2023-05-19T14:42:16.861Z,2.15
2023-05-19T14:44:43.422Z,1.92
2023-05-19T14:47:11.195Z,2.05
2023-05-19T14:49:39.233Z,1.92
2023-05-19T14:52:06.061Z,1.80
2023-05-19T14:54:32.656Z,2.10
2023-05-19T14:56:59.228Z,2.05
2023-05-19T14:59:26.215Z,1.95
2023-05-19T15:01:52.729Z,2.10
2023-05-19T15:04:19.302Z,1.90
2023-05-19T15:06:48.235Z,2.10
2023-05-19T15:09:18.989Z,2.20
2023-05-19T15:11:45.663Z,1.80
2023-05-19T15:14:12.201Z,1.80
2023-05-19T15:16:38.728Z,1.50
2023-05-19T15:19:05.365Z,1.98
2023-05-19T15:21:31.932Z,1.92
2023-05-19T15:23:58.444Z,1.95
2023-05-19T15:26:25.183Z,1.52
2023-05-19T15:28:52.726Z,1.80
2023-05-19T15:31:19.319Z,1.80
2023-05-19T15:33:46.082Z,1.90
2023-05-19T15:36:16.393Z,1.60
2023-05-19T15:38:42.928Z,1.80
2023-05-19T15:41:10.200Z,1.80
2023-05-19T15:43:36.951Z,1.90
2023-05-19T15:46:04.995Z,1.77
2023-05-19T15:48:32.349Z,1.80
2023-05-19T15:50:59.794Z,2.08
2023-05-19T15:53:26.459Z,1.70
2023-05-19T15:55:52.946Z,2.00
2023-05-19T15:58:19.543Z,2.00
2023-05-19T16:00:48.196Z,1.83
2023-05-19T16:03:14.882Z,1.92
2023-05-19T16:05:41.467Z,1.58
2023-05-19T16:08:08.891Z,2.17
2023-05-19T16:10:38.483Z,2.03
2023-05-19T16:13:05.038Z,1.83
2023-05-19T16:15:31.541Z,1.70
2023-05-19T16:17:58.102Z,1.80
2023-05-19T16:20:27.854Z,1.90
2023-05-19T16:22:55.437Z,1.77
2023-05-19T16:25:22.344Z,1.98
2023-05-19T16:27:48.967Z,2.20
2023-05-19T16:30:16.486Z,1.70
2023-05-19T16:32:43.179Z,1.77
2023-05-19T16:35:10.033Z,1.90
2023-05-19T16:37:36.574Z,1.80
2023-05-19T16:40:03.506Z,1.70
2023-05-19T16:42:30.081Z,1.67
2023-05-19T16:44:56.572Z,1.50
2023-05-19T16:47:23.149Z,1.88
2023-05-19T16:49:49.689Z,1.65
2023-05-19T16:52:16.215Z,1.67
2023-05-19T16:54:42.739Z,1.50
2023-05-19T16:57:09.811Z,1.65
2023-05-19T16:59:36.345Z,1.80
2023-05-19T17:02:03.409Z,1.55
2023-05-19T17:04:30.891Z,1.90
2023-05-19T17:06:57.627Z,1.88
2023-05-19T17:09:26.205Z,1.75
2023-05-19T17:11:53.557Z,1.92
2023-05-19T17:14:20.976Z,2.00
2023-05-19T17:16:47.734Z,1.90
2023-05-19T17:19:16.175Z,1.55
2023-05-19T17:21:42.734Z,1.70
2023-05-19T17:24:09.338Z,1.83
2023-05-19T17:26:35.958Z,1.80
2023-05-19T17:29:02.509Z,1.88
2023-05-19T17:31:29.107Z,1.90
2023-05-19T17:33:58.096Z,1.80
2023-05-19T17:36:24.565Z,2.05
2023-05-19T17:38:51.200Z,1.98
2023-05-19T17:41:17.912Z,1.95
2023-05-19T17:43:44.438Z,1.95
2023-05-19T17:46:12.055Z,1.90
2023-05-19T17:48:39.727Z,2.10
2023-05-19T17:51:09.153Z,2.00
2023-05-19T17:53:36.554Z,2.05
2023-05-19T17:56:06.543Z,2.13
2023-05-19T17:58:33.446Z,2.10
2023-05-19T18:01:00.372Z,2.10
2023-05-19T18:03:27.188Z,2.22
2023-05-19T18:05:58.633Z,2.00
2023-05-19T18:08:25.952Z,2.47
2023-05-19T18:10:54.109Z,2.30
2023-05-19T18:13:23.551Z,2.50
2023-05-19T18:15:50.555Z,2.00
2023-05-19T18:18:17.136Z,2.00
2023-05-19T18:20:47.560Z,1.70
2023-05-19T18:23:14.097Z,2.03
2023-05-19T18:25:40.643Z,2.03
2023-05-19T18:28:07.983Z,1.95
2023-05-19T18:30:34.905Z,2.25
2023-05-19T18:33:03.673Z,2.17
2023-05-19T18:35:30.479Z,2.42
2023-05-19T18:37:57.368Z,2.20
2023-05-19T18:40:24.519Z,1.90
2023-05-19T18:42:51.010Z,2.38
2023-05-19T18:45:17.491Z,2.13
2023-05-19T18:47:46.815Z,2.10
2023-05-19T18:50:14.279Z,2.20
2023-05-19T18:52:40.909Z,2.40
2023-05-19T18:55:07.770Z,2.10
2023-05-19T18:57:34.319Z,2.20
2023-05-19T19:00:00.837Z,2.22
2023-05-19T19:02:27.397Z,2.22
2023-05-19T19:04:53.992Z,2.30
2023-05-19T19:07:20.642Z,2.05
2023-05-19T19:09:47.144Z,2.20
2023-05-19T19:12:13.737Z,2.42
2023-05-19T19:14:40.304Z,2.30
2023-05-19T19:17:06.863Z,2.80
2023-05-19T19:19:33.461Z,2.70
2023-05-19T19:22:00.136Z,2.50
2023-05-19T19:24:28.412Z,2.47
2023-05-19T19:26:54.931Z,2.65
2023-05-19T19:29:21.923Z,3.08
2023-05-19T19:31:48.740Z,3.05
2023-05-19T19:34:15.638Z,3.30
2023-05-19T19:36:42.168Z,3.50
2023-05-19T19:39:08.704Z,4.88
2023-05-19T19:41:35.301Z,5.30
2023-05-19T19:44:01.842Z,7.18
2023-05-19T19:46:31.179Z,6.35
2023-05-19T19:49:00.613Z,5.63
2023-05-19T19:51:27.832Z,5.10
2023-05-19T19:53:54.635Z,3.70
2023-05-19T19:56:23.593Z,4.43
2023-05-19T19:58:51.039Z,4.28
2023-05-19T20:01:20.285Z,4.00
2023-05-19T20:03:47.337Z,3.72
2023-05-19T20:06:14.198Z,4.13
2023-05-19T20:08:40.773Z,4.78
2023-05-19T20:11:07.307Z,4.47
2023-05-19T20:13:34.011Z,3.90
2023-05-19T20:16:03.365Z,3.78
2023-05-19T20:18:30.172Z,3.40
2023-05-19T20:20:56.995Z,3.25
2023-05-19T20:23:23.557Z,3.42
2023-05-19T20:26:06.701Z,2.97
2023-05-19T20:28:37.291Z,3.13
2023-05-19T20:31:03.909Z,2.95
2023-05-19T20:33:30.469Z,3.10
2023-05-19T20:35:57.040Z,3.30
2023-05-19T20:38:23.547Z,3.20
2023-05-19T20:40:50.149Z,3.10
2023-05-19T20:43:16.717Z,3.05
2023-05-19T20:45:44.257Z,3.30
2023-05-19T20:48:11.314Z,3.22
2023-05-19T20:50:39.366Z,3.30
2023-05-19T20:53:07.301Z,3.15
2023-05-19T20:55:36.264Z,3.20
2023-05-19T20:58:06.475Z,3.45
2023-05-19T21:00:33.581Z,3.10
2023-05-19T21:03:00.748Z,3.17
2023-05-19T21:05:27.338Z,2.95
2023-05-19T21:07:53.984Z,2.92
2023-05-19T21:10:23.584Z,3.05
2023-05-19T21:13:00.843Z,3.22
2023-05-19T21:15:27.460Z,2.80
2023-05-19T21:17:55.092Z,2.83
2023-05-19T21:20:21.775Z,2.90
2023-05-19T21:22:48.300Z,2.90
2023-05-19T21:25:17.004Z,3.10
2023-05-19T21:27:48.679Z,2.80
2023-05-19T21:30:24.456Z,3.00
2023-05-19T21:32:51.347Z,2.75
2023-05-19T21:35:17.933Z,3.38
2023-05-19T21:37:44.494Z,3.53
2023-05-19T21:40:11.664Z,3.30
2023-05-19T21:42:38.217Z,3.75
2023-05-19T21:45:05.225Z,3.50
2023-05-19T21:47:33.723Z,3.47
2023-05-19T21:50:03.120Z,3.47
2023-05-19T21:52:30.271Z,3.83
2023-05-19T21:55:00.035Z,3.60
2023-05-19T21:57:26.654Z,3.40
2023-05-19T21:59:53.193Z,3.60
2023-05-19T22:02:23.143Z,3.28
2023-05-19T22:04:55.771Z,3.50
2023-05-19T22:07:26.783Z,3.70
2023-05-19T22:09:53.695Z,3.50
2023-05-19T22:12:20.326Z,3.70
2023-05-19T22:14:46.805Z,3.83
2023-05-19T22:17:13.326Z,3.78
2023-05-19T22:19:39.810Z,3.45
2023-05-19T22:22:13.777Z,3.40
2023-05-19T22:24:41.223Z,4.03
2023-05-19T22:27:08.545Z,3.55
2023-05-19T22:29:38.665Z,3.33
2023-05-19T22:32:12.067Z,3.70
2023-05-19T22:34:41.955Z,3.72
2023-05-19T22:37:08.531Z,3.90
2023-05-19T22:39:35.193Z,4.10
2023-05-19T22:42:02.522Z,3.53
2023-05-19T22:44:29.052Z,3.40
2023-05-19T22:47:00.534Z,3.63
2023-05-19T22:49:29.837Z,4.10
2023-05-19T22:51:56.336Z,3.72
2023-05-19T22:54:25.375Z,4.20
2023-05-19T22:56:51.870Z,4.03
2023-05-19T22:59:18.504Z,3.95
2023-05-19T23:01:51.221Z,3.72
2023-05-19T23:04:17.921Z,4.10
2023-05-19T23:06:49.627Z,3.97
2023-05-19T23:09:17.866Z,3.78
2023-05-19T23:11:45.178Z,4.00
2023-05-19T23:14:11.725Z,3.83
2023-05-19T23:16:41.310Z,4.00
2023-05-19T23:19:11.202Z,4.10
2023-05-19T23:21:37.760Z,4.22
2023-05-19T23:24:05.665Z,4.82
2023-05-19T23:26:37.748Z,3.97
2023-05-19T23:29:11.251Z,4.18
2023-05-19T23:31:42.141Z,3.75
2023-05-19T23:34:12.066Z,4.10
2023-05-19T23:36:38.571Z,4.30
2023-05-19T23:39:05.087Z,3.88
2023-05-19T23:41:31.743Z,4.25
2023-05-19T23:43:58.382Z,4.10
2023-05-19T23:46:27.600Z,3.70
2023-05-19T23:48:57.490Z,4.30
2023-05-19T23:51:24.152Z,4.03
2023-05-19T23:53:50.873Z,4.47
2023-05-19T23:56:17.402Z,4.50
2023-05-19T23:58:46.561Z,3.97
